sensor_id;sensor_type;location;lat;lon;timestamp;temperature;humidity
12119;DHT22;6123;48.864;9.200;2023-12-04T12:56:25;1.00;99.90
12119;DHT22;6123;48.864;9.200;2023-12-04T12:58:53;1.00;99.90
12119;DHT22;6123;48.864;9.200;2023-12-04T13:01:18;0.90;99.90
12119;DHT22;6123;48.864;9.200;2023-12-04T13:03:47;0.80;99.90
12119;DHT22;6123;48.864;9.200;2023-12-04T13:06:13;0.90;99.90
12119;DHT22;6123;48.864;9.200;2023-12-04T13:08:38;0.80;99.90
12119;DHT22;6123;48.864;9.200;2023-12-04T13:11:05;1.00;99.90
12119;DHT22;6123;48.864;9.200;2023-12-04T13:13:31;1.00;99.90
12119;DHT22;6123;48.864;9.200;2023-12-04T13:15:57;0.90;99.90
12119;DHT22;6123;48.864;9.200;2023-12-04T13:18:23;0.90;99.90
12119;DHT22;6123;48.864;9.200;2023-12-04T13:20:48;0.90;99.90
12119;DHT22;6123;48.864;9.200;2023-12-04T13:23:14;0.90;99.90
12119;DHT22;6123;48.864;9.200;2023-12-04T13:25:39;0.80;99.90
12119;DHT22;6123;48.864;9.200;2023-12-04T13:28:05;0.80;99.90
12119;DHT22;6123;48.864;9.200;2023-12-04T13:30:31;1.00;99.90
12119;DHT22;6123;48.864;9.200;2023-12-04T13:32:59;1.00;99.90
12119;DHT22;6123;48.864;9.200;2023-12-04T13:35:25;1.00;99.90
12119;DHT22;6123;48.864;9.200;2023-12-04T13:37:50;1.00;99.90
12119;DHT22;6123;48.864;9.200;2023-12-04T13:40:20;0.90;99.90
12119;DHT22;6123;48.864;9.200;2023-12-04T13:42:46;0.90;99.90
12119;DHT22;6123;48.864;9.200;2023-12-04T13:45:30;1.10;99.90
12119;DHT22;6123;48.864;9.200;2023-12-04T13:47:57;0.90;99.90
12119;DHT22;6123;48.864;9.200;2023-12-04T13:50:23;0.80;99.90
12119;DHT22;6123;48.864;9.200;2023-12-04T13:52:48;0.90;99.90
12119;DHT22;6123;48.864;9.200;2023-12-04T13:55:21;0.80;99.90
12119;DHT22;6123;48.864;9.200;2023-12-04T13:57:56;0.90;99.90
12119;DHT22;6123;48.864;9.200;2023-12-04T14:00:36;0.80;99.90
12119;DHT22;6123;48.864;9.200;2023-12-04T14:03:02;0.70;99.90
12119;DHT22;6123;48.864;9.200;2023-12-04T14:05:31;0.70;99.90
12119;DHT22;6123;48.864;9.200;2023-12-04T14:07:57;0.60;99.90
12119;DHT22;6123;48.864;9.200;2023-12-04T14:10:24;0.60;99.90
12119;DHT22;6123;48.864;9.200;2023-12-04T14:12:51;0.70;99.90
12119;DHT22;6123;48.864;9.200;2023-12-04T14:15:16;0.70;99.90
12119;DHT22;6123;48.864;9.200;2023-12-04T14:17:42;0.70;99.90
12119;DHT22;6123;48.864;9.200;2023-12-04T14:20:08;0.50;99.90
12119;DHT22;6123;48.864;9.200;2023-12-04T14:22:41;0.50;99.90
12119;DHT22;6123;48.864;9.200;2023-12-04T14:25:07;0.60;99.90
12119;DHT22;6123;48.864;9.200;2023-12-04T14:27:33;0.50;99.90
12119;DHT22;6123;48.864;9.200;2023-12-04T14:29:58;0.50;99.90
12119;DHT22;6123;48.864;9.200;2023-12-04T14:32:24;0.40;99.90
12119;DHT22;6123;48.864;9.200;2023-12-04T14:34:49;0.50;99.90
12119;DHT22;6123;48.864;9.200;2023-12-04T14:37:15;0.50;99.90
12119;DHT22;6123;48.864;9.200;2023-12-04T14:39:41;0.40;99.90
12119;DHT22;6123;48.864;9.200;2023-12-04T14:42:06;0.50;99.90
12119;DHT22;6123;48.864;9.200;2023-12-04T14:44:32;0.50;99.90
12119;DHT22;6123;48.864;9.200;2023-12-04T14:46:58;0.50;99.90
12119;DHT22;6123;48.864;9.200;2023-12-04T14:49:24;0.50;99.90
12119;DHT22;6123;48.864;9.200;2023-12-04T14:51:50;0.50;99.90
12119;DHT22;6123;48.864;9.200;2023-12-04T14:54:15;0.50;99.90
12119;DHT22;6123;48.864;9.200;2023-12-04T14:56:48;0.40;99.90
12119;DHT22;6123;48.864;9.200;2023-12-04T14:59:46;0.50;99.90
12119;DHT22;6123;48.864;9.200;2023-12-04T15:02:30;0.40;99.90
12119;DHT22;6123;48.864;9.200;2023-12-04T15:05:21;0.50;99.90
12119;DHT22;6123;48.864;9.200;2023-12-04T15:08:12;0.50;99.90
12119;DHT22;6123;48.864;9.200;2023-12-04T15:11:10;0.60;99.90
12119;DHT22;6123;48.864;9.200;2023-12-04T15:13:54;0.50;99.90
12119;DHT22;6123;48.864;9.200;2023-12-04T15:16:25;0.50;99.90
12119;DHT22;6123;48.864;9.200;2023-12-04T15:18:59;0.40;99.90
12119;DHT22;6123;48.864;9.200;2023-12-04T15:21:36;0.40;99.90
12119;DHT22;6123;48.864;9.200;2023-12-04T15:24:02;0.50;99.90
12119;DHT22;6123;48.864;9.200;2023-12-04T15:26:28;0.60;99.90
12119;DHT22;6123;48.864;9.200;2023-12-04T15:28:53;0.50;99.90
12119;DHT22;6123;48.864;9.200;2023-12-04T15:31:19;0.50;99.90
12119;DHT22;6123;48.864;9.200;2023-12-04T15:33:45;0.60;99.90
12119;DHT22;6123;48.864;9.200;2023-12-04T15:36:11;0.60;99.90
12119;DHT22;6123;48.864;9.200;2023-12-04T15:38:36;0.60;99.90
12119;DHT22;6123;48.864;9.200;2023-12-04T15:41:03;0.60;99.90
12119;DHT22;6123;48.864;9.200;2023-12-04T15:43:29;0.60;99.90
12119;DHT22;6123;48.864;9.200;2023-12-04T15:45:56;0.70;99.90
12119;DHT22;6123;48.864;9.200;2023-12-04T15:48:21;0.70;99.90
12119;DHT22;6123;48.864;9.200;2023-12-04T15:50:47;0.70;99.90
12119;DHT22;6123;48.864;9.200;2023-12-04T15:53:12;0.70;99.90
12119;DHT22;6123;48.864;9.200;2023-12-04T15:55:38;0.70;99.90
12119;DHT22;6123;48.864;9.200;2023-12-04T15:58:03;0.80;99.90
12119;DHT22;6123;48.864;9.200;2023-12-04T16:00:29;0.80;99.90
12119;DHT22;6123;48.864;9.200;2023-12-04T16:02:55;0.90;99.90
12119;DHT22;6123;48.864;9.200;2023-12-04T16:05:20;0.90;99.90
12119;DHT22;6123;48.864;9.200;2023-12-04T16:07:46;0.90;99.90
12119;DHT22;6123;48.864;9.200;2023-12-04T16:10:13;0.90;99.90
12119;DHT22;6123;48.864;9.200;2023-12-04T16:12:40;0.90;99.90
12119;DHT22;6123;48.864;9.200;2023-12-04T16:15:06;0.90;99.90
12119;DHT22;6123;48.864;9.200;2023-12-04T16:17:36;0.90;99.90
12119;DHT22;6123;48.864;9.200;2023-12-04T16:20:03;0.90;99.90
12119;DHT22;6123;48.864;9.200;2023-12-04T16:22:29;0.90;99.90
12119;DHT22;6123;48.864;9.200;2023-12-04T16:24:54;0.90;99.90
12119;DHT22;6123;48.864;9.200;2023-12-04T16:27:20;0.90;99.90
12119;DHT22;6123;48.864;9.200;2023-12-04T16:29:46;1.00;99.90
12119;DHT22;6123;48.864;9.200;2023-12-04T16:32:11;1.00;99.90
12119;DHT22;6123;48.864;9.200;2023-12-04T16:34:37;0.90;99.90
12119;DHT22;6123;48.864;9.200;2023-12-04T16:37:02;1.00;99.90
12119;DHT22;6123;48.864;9.200;2023-12-04T16:39:28;1.00;99.90
12119;DHT22;6123;48.864;9.200;2023-12-04T16:41:54;1.10;99.90
12119;DHT22;6123;48.864;9.200;2023-12-04T16:44:20;1.00;99.90
12119;DHT22;6123;48.864;9.200;2023-12-04T16:46:47;1.00;99.90
12119;DHT22;6123;48.864;9.200;2023-12-04T16:49:13;1.00;99.90
12119;DHT22;6123;48.864;9.200;2023-12-04T16:51:40;1.00;99.90
12119;DHT22;6123;48.864;9.200;2023-12-04T16:54:09;1.10;99.90
12119;DHT22;6123;48.864;9.200;2023-12-04T16:56:35;1.10;99.90
12119;DHT22;6123;48.864;9.200;2023-12-04T16:59:00;1.20;99.90
12119;DHT22;6123;48.864;9.200;2023-12-04T17:01:26;1.20;99.90
12119;DHT22;6123;48.864;9.200;2023-12-04T17:03:52;1.20;99.90
12119;DHT22;6123;48.864;9.200;2023-12-04T17:06:18;1.20;99.90
12119;DHT22;6123;48.864;9.200;2023-12-04T17:08:44;1.20;99.90
12119;DHT22;6123;48.864;9.200;2023-12-04T17:11:09;1.10;99.90
12119;DHT22;6123;48.864;9.200;2023-12-04T17:13:35;1.10;99.90
12119;DHT22;6123;48.864;9.200;2023-12-04T17:16:00;1.10;99.90
12119;DHT22;6123;48.864;9.200;2023-12-04T17:18:26;1.10;99.90
12119;DHT22;6123;48.864;9.200;2023-12-04T17:20:52;1.10;99.90
12119;DHT22;6123;48.864;9.200;2023-12-04T17:23:17;1.10;99.90
12119;DHT22;6123;48.864;9.200;2023-12-04T17:25:43;1.20;99.90
12119;DHT22;6123;48.864;9.200;2023-12-04T17:28:08;1.10;99.90
12119;DHT22;6123;48.864;9.200;2023-12-04T17:30:34;1.10;99.90
12119;DHT22;6123;48.864;9.200;2023-12-04T17:33:00;1.10;99.90
12119;DHT22;6123;48.864;9.200;2023-12-04T17:35:25;1.10;99.90
12119;DHT22;6123;48.864;9.200;2023-12-04T17:37:52;1.10;99.90
12119;DHT22;6123;48.864;9.200;2023-12-04T17:40:17;1.10;99.90
12119;DHT22;6123;48.864;9.200;2023-12-04T17:42:44;1.10;99.90
12119;DHT22;6123;48.864;9.200;2023-12-04T17:45:10;1.20;99.90
12119;DHT22;6123;48.864;9.200;2023-12-04T17:47:37;1.20;99.90
12119;DHT22;6123;48.864;9.200;2023-12-04T17:50:02;1.20;99.90
12119;DHT22;6123;48.864;9.200;2023-12-04T17:52:28;1.20;99.90
12119;DHT22;6123;48.864;9.200;2023-12-04T17:54:53;1.30;99.90
12119;DHT22;6123;48.864;9.200;2023-12-04T17:57:19;1.20;99.90
12119;DHT22;6123;48.864;9.200;2023-12-04T17:59:45;1.20;99.90
12119;DHT22;6123;48.864;9.200;2023-12-04T18:02:11;1.20;99.90
12119;DHT22;6123;48.864;9.200;2023-12-04T18:04:36;1.10;99.90
12119;DHT22;6123;48.864;9.200;2023-12-04T18:07:03;1.10;99.90
12119;DHT22;6123;48.864;9.200;2023-12-04T18:09:30;1.10;99.90
12119;DHT22;6123;48.864;9.200;2023-12-04T18:11:56;1.10;99.90
12119;DHT22;6123;48.864;9.200;2023-12-04T18:14:22;1.10;99.90
12119;DHT22;6123;48.864;9.200;2023-12-04T18:16:48;1.10;99.90
12119;DHT22;6123;48.864;9.200;2023-12-04T18:19:13;1.10;99.90
12119;DHT22;6123;48.864;9.200;2023-12-04T18:21:39;1.10;99.90
12119;DHT22;6123;48.864;9.200;2023-12-04T18:24:04;1.00;99.90
12119;DHT22;6123;48.864;9.200;2023-12-04T18:26:30;1.00;99.90
12119;DHT22;6123;48.864;9.200;2023-12-04T18:28:57;1.10;99.90
12119;DHT22;6123;48.864;9.200;2023-12-04T18:31:23;1.10;99.90
12119;DHT22;6123;48.864;9.200;2023-12-04T18:33:49;1.10;99.90
12119;DHT22;6123;48.864;9.200;2023-12-04T18:36:14;1.10;99.90
12119;DHT22;6123;48.864;9.200;2023-12-04T18:38:53;1.10;99.90
12119;DHT22;6123;48.864;9.200;2023-12-04T18:41:20;1.10;99.90
12119;DHT22;6123;48.864;9.200;2023-12-04T18:43:46;1.10;99.90
12119;DHT22;6123;48.864;9.200;2023-12-04T18:46:13;1.00;99.90
12119;DHT22;6123;48.864;9.200;2023-12-04T18:48:39;1.10;99.90
12119;DHT22;6123;48.864;9.200;2023-12-04T18:51:07;1.10;99.90
12119;DHT22;6123;48.864;9.200;2023-12-04T18:53:33;1.10;99.90
12119;DHT22;6123;48.864;9.200;2023-12-04T18:55:59;1.00;99.90
12119;DHT22;6123;48.864;9.200;2023-12-04T18:58:25;1.00;99.90
12119;DHT22;6123;48.864;9.200;2023-12-04T19:00:52;1.10;99.90
12119;DHT22;6123;48.864;9.200;2023-12-04T19:03:18;1.10;99.90
12119;DHT22;6123;48.864;9.200;2023-12-04T19:05:45;1.10;99.90
12119;DHT22;6123;48.864;9.200;2023-12-04T19:08:10;1.20;99.90
12119;DHT22;6123;48.864;9.200;2023-12-04T19:10:36;1.30;99.90
12119;DHT22;6123;48.864;9.200;2023-12-04T19:13:02;1.20;99.90
12119;DHT22;6123;48.864;9.200;2023-12-04T19:15:27;1.30;99.90
12119;DHT22;6123;48.864;9.200;2023-12-04T19:17:55;1.30;99.90
12119;DHT22;6123;48.864;9.200;2023-12-04T19:20:21;1.30;99.90
12119;DHT22;6123;48.864;9.200;2023-12-04T19:22:47;1.30;99.90
12119;DHT22;6123;48.864;9.200;2023-12-04T19:25:12;1.30;99.90
12119;DHT22;6123;48.864;9.200;2023-12-04T19:27:39;1.30;99.90
12119;DHT22;6123;48.864;9.200;2023-12-04T19:30:05;1.30;99.90
12119;DHT22;6123;48.864;9.200;2023-12-04T19:32:31;1.30;99.90
12119;DHT22;6123;48.864;9.200;2023-12-04T19:34:56;1.30;99.90
12119;DHT22;6123;48.864;9.200;2023-12-04T19:37:22;1.30;99.90
12119;DHT22;6123;48.864;9.200;2023-12-04T19:39:47;1.30;99.90
12119;DHT22;6123;48.864;9.200;2023-12-04T19:42:13;1.30;99.90
12119;DHT22;6123;48.864;9.200;2023-12-04T19:44:43;1.40;99.90
12119;DHT22;6123;48.864;9.200;2023-12-04T19:47:08;1.40;99.90
12119;DHT22;6123;48.864;9.200;2023-12-04T19:49:34;1.30;99.90
12119;DHT22;6123;48.864;9.200;2023-12-04T19:52:00;1.40;99.90
12119;DHT22;6123;48.864;9.200;2023-12-04T19:54:25;1.30;99.90
12119;DHT22;6123;48.864;9.200;2023-12-04T19:56:51;1.40;99.90
12119;DHT22;6123;48.864;9.200;2023-12-04T19:59:16;1.40;99.90
12119;DHT22;6123;48.864;9.200;2023-12-04T20:01:42;1.40;99.90
12119;DHT22;6123;48.864;9.200;2023-12-04T20:04:08;1.40;99.90
12119;DHT22;6123;48.864;9.200;2023-12-04T20:06:34;1.40;99.90
12119;DHT22;6123;48.864;9.200;2023-12-04T20:08:59;1.50;99.90
12119;DHT22;6123;48.864;9.200;2023-12-04T20:11:25;1.50;99.90
12119;DHT22;6123;48.864;9.200;2023-12-04T20:13:50;1.50;99.90
12119;DHT22;6123;48.864;9.200;2023-12-04T20:16:16;1.50;99.90
12119;DHT22;6123;48.864;9.200;2023-12-04T20:18:41;1.60;99.90
12119;DHT22;6123;48.864;9.200;2023-12-04T20:21:07;1.60;99.90
12119;DHT22;6123;48.864;9.200;2023-12-04T20:23:33;1.60;99.90
12119;DHT22;6123;48.864;9.200;2023-12-04T20:25:59;1.70;99.90
12119;DHT22;6123;48.864;9.200;2023-12-04T20:28:25;1.70;99.90
12119;DHT22;6123;48.864;9.200;2023-12-04T20:30:51;1.70;99.90
12119;DHT22;6123;48.864;9.200;2023-12-04T20:33:17;1.70;99.90
12119;DHT22;6123;48.864;9.200;2023-12-04T20:35:47;1.70;99.90
12119;DHT22;6123;48.864;9.200;2023-12-04T20:38:13;1.70;99.90
12119;DHT22;6123;48.864;9.200;2023-12-04T20:40:45;1.70;99.90
12119;DHT22;6123;48.864;9.200;2023-12-04T20:43:12;1.70;99.90
12119;DHT22;6123;48.864;9.200;2023-12-04T20:45:38;1.80;99.90
12119;DHT22;6123;48.864;9.200;2023-12-04T20:48:04;1.70;99.90
12119;DHT22;6123;48.864;9.200;2023-12-04T20:50:33;1.70;99.90
12119;DHT22;6123;48.864;9.200;2023-12-04T20:52:59;1.60;99.90
12119;DHT22;6123;48.864;9.200;2023-12-04T20:55:24;1.70;99.90
12119;DHT22;6123;48.864;9.200;2023-12-04T20:57:50;1.70;99.90
12119;DHT22;6123;48.864;9.200;2023-12-04T21:00:16;1.70;99.90
12119;DHT22;6123;48.864;9.200;2023-12-04T21:02:42;1.80;99.90
12119;DHT22;6123;48.864;9.200;2023-12-04T21:05:08;1.80;99.90
12119;DHT22;6123;48.864;9.200;2023-12-04T21:07:34;1.80;99.90
12119;DHT22;6123;48.864;9.200;2023-12-04T21:10:01;1.80;99.90
12119;DHT22;6123;48.864;9.200;2023-12-04T21:12:26;1.80;99.90
12119;DHT22;6123;48.864;9.200;2023-12-04T21:14:53;1.80;99.90
12119;DHT22;6123;48.864;9.200;2023-12-04T21:17:18;1.90;99.90
12119;DHT22;6123;48.864;9.200;2023-12-04T21:19:44;1.90;99.90
12119;DHT22;6123;48.864;9.200;2023-12-04T21:22:09;1.80;99.90
12119;DHT22;6123;48.864;9.200;2023-12-04T21:24:35;1.80;99.90
12119;DHT22;6123;48.864;9.200;2023-12-04T21:27:00;1.80;99.90
12119;DHT22;6123;48.864;9.200;2023-12-04T21:29:26;1.80;99.90
12119;DHT22;6123;48.864;9.200;2023-12-04T21:31:51;1.80;99.90
12119;DHT22;6123;48.864;9.200;2023-12-04T21:34:17;1.80;99.90
12119;DHT22;6123;48.864;9.200;2023-12-04T21:36:45;1.80;99.90
12119;DHT22;6123;48.864;9.200;2023-12-04T21:39:10;1.80;99.90
12119;DHT22;6123;48.864;9.200;2023-12-04T21:41:39;1.80;99.90
12119;DHT22;6123;48.864;9.200;2023-12-04T21:44:05;1.90;99.90
12119;DHT22;6123;48.864;9.200;2023-12-04T21:46:31;1.90;99.90
12119;DHT22;6123;48.864;9.200;2023-12-04T21:48:57;1.90;99.90
12119;DHT22;6123;48.864;9.200;2023-12-04T21:51:23;1.90;99.90
12119;DHT22;6123;48.864;9.200;2023-12-04T21:53:51;1.90;99.90
12119;DHT22;6123;48.864;9.200;2023-12-04T21:56:16;1.90;99.90
12119;DHT22;6123;48.864;9.200;2023-12-04T21:58:42;1.90;99.90
12119;DHT22;6123;48.864;9.200;2023-12-04T22:01:08;1.90;99.90
12119;DHT22;6123;48.864;9.200;2023-12-04T22:03:33;1.90;99.90
12119;DHT22;6123;48.864;9.200;2023-12-04T22:06:00;1.90;99.90
12119;DHT22;6123;48.864;9.200;2023-12-04T22:08:26;2.00;99.90
12119;DHT22;6123;48.864;9.200;2023-12-04T22:10:52;2.10;99.90
12119;DHT22;6123;48.864;9.200;2023-12-04T22:13:18;2.00;99.90
12119;DHT22;6123;48.864;9.200;2023-12-04T22:15:43;2.00;99.90
12119;DHT22;6123;48.864;9.200;2023-12-04T22:18:09;2.10;99.90
12119;DHT22;6123;48.864;9.200;2023-12-04T22:20:35;2.10;99.90
12119;DHT22;6123;48.864;9.200;2023-12-04T22:23:00;2.20;99.90
12119;DHT22;6123;48.864;9.200;2023-12-04T22:25:26;2.20;99.90
12119;DHT22;6123;48.864;9.200;2023-12-04T22:27:52;2.20;99.90
12119;DHT22;6123;48.864;9.200;2023-12-04T22:30:18;2.30;99.90
12119;DHT22;6123;48.864;9.200;2023-12-04T22:32:44;2.30;99.90
12119;DHT22;6123;48.864;9.200;2023-12-04T22:35:10;2.20;99.90
12119;DHT22;6123;48.864;9.200;2023-12-04T22:37:35;2.20;99.90
12119;DHT22;6123;48.864;9.200;2023-12-04T22:40:03;2.30;99.90
12119;DHT22;6123;48.864;9.200;2023-12-04T22:42:31;2.30;99.90
12119;DHT22;6123;48.864;9.200;2023-12-04T22:44:56;2.20;99.90
12119;DHT22;6123;48.864;9.200;2023-12-04T22:47:22;2.30;99.90
12119;DHT22;6123;48.864;9.200;2023-12-04T22:49:48;2.20;99.90
12119;DHT22;6123;48.864;9.200;2023-12-04T22:52:14;2.30;99.90
12119;DHT22;6123;48.864;9.200;2023-12-04T22:54:39;2.30;99.90
12119;DHT22;6123;48.864;9.200;2023-12-04T22:57:05;2.30;99.90
12119;DHT22;6123;48.864;9.200;2023-12-04T22:59:31;2.30;99.90
12119;DHT22;6123;48.864;9.200;2023-12-04T23:01:57;2.30;99.90
12119;DHT22;6123;48.864;9.200;2023-12-04T23:04:23;2.40;99.90
12119;DHT22;6123;48.864;9.200;2023-12-04T23:06:48;2.40;99.90
12119;DHT22;6123;48.864;9.200;2023-12-04T23:09:14;2.40;99.90
12119;DHT22;6123;48.864;9.200;2023-12-04T23:11:39;2.40;99.90
12119;DHT22;6123;48.864;9.200;2023-12-04T23:14:05;2.40;99.90
12119;DHT22;6123;48.864;9.200;2023-12-04T23:16:30;2.50;99.90
12119;DHT22;6123;48.864;9.200;2023-12-04T23:18:56;2.50;99.90
12119;DHT22;6123;48.864;9.200;2023-12-04T23:21:21;2.40;99.90
12119;DHT22;6123;48.864;9.200;2023-12-04T23:23:47;2.50;99.90
12119;DHT22;6123;48.864;9.200;2023-12-04T23:26:13;2.40;99.90
12119;DHT22;6123;48.864;9.200;2023-12-04T23:28:38;2.50;99.90
12119;DHT22;6123;48.864;9.200;2023-12-04T23:31:04;2.50;99.90
12119;DHT22;6123;48.864;9.200;2023-12-04T23:33:29;2.50;99.90
12119;DHT22;6123;48.864;9.200;2023-12-04T23:35:55;2.50;99.90
12119;DHT22;6123;48.864;9.200;2023-12-04T23:38:20;2.50;99.90
12119;DHT22;6123;48.864;9.200;2023-12-04T23:40:46;2.50;99.90
12119;DHT22;6123;48.864;9.200;2023-12-04T23:43:12;2.50;99.90
12119;DHT22;6123;48.864;9.200;2023-12-04T23:45:37;2.50;99.90
12119;DHT22;6123;48.864;9.200;2023-12-04T23:48:03;2.50;99.90
12119;DHT22;6123;48.864;9.200;2023-12-04T23:50:29;2.50;99.90
12119;DHT22;6123;48.864;9.200;2023-12-04T23:52:54;2.50;99.90
12119;DHT22;6123;48.864;9.200;2023-12-04T23:55:20;2.50;99.90
12119;DHT22;6123;48.864;9.200;2023-12-04T23:57:46;2.50;99.90
